sensor_id;sensor_type;location;lat;lon;timestamp;P1;durP1;ratioP1;P2;durP2;ratioP2
70322;SDS011;57735;56.264;43.898;2022-12-07T00:00:11;8.57;;;3.47;;
70322;SDS011;57735;56.264;43.898;2022-12-07T00:02:48;10.40;;;3.50;;
70322;SDS011;57735;56.264;43.898;2022-12-07T00:05:22;15.45;;;3.88;;
70322;SDS011;57735;56.264;43.898;2022-12-07T00:07:52;6.50;;;3.15;;
70322;SDS011;57735;56.264;43.898;2022-12-07T00:10:23;8.40;;;3.50;;
70322;SDS011;57735;56.264;43.898;2022-12-07T00:12:54;9.20;;;3.72;;
70322;SDS011;57735;56.264;43.898;2022-12-07T00:15:27;9.98;;;3.65;;
70322;SDS011;57735;56.264;43.898;2022-12-07T00:18:05;6.85;;;3.38;;
70322;SDS011;57735;56.264;43.898;2022-12-07T00:20:36;13.57;;;4.07;;
70322;SDS011;57735;56.264;43.898;2022-12-07T00:23:07;8.85;;;3.40;;
70322;SDS011;57735;56.264;43.898;2022-12-07T00:25:40;10.82;;;3.45;;
70322;SDS011;57735;56.264;43.898;2022-12-07T00:28:11;9.70;;;3.42;;
70322;SDS011;57735;56.264;43.898;2022-12-07T00:30:44;10.57;;;3.67;;
70322;SDS011;57735;56.264;43.898;2022-12-07T00:33:18;7.43;;;3.15;;
70322;SDS011;57735;56.264;43.898;2022-12-07T00:35:54;7.38;;;3.58;;
70322;SDS011;57735;56.264;43.898;2022-12-07T00:38:27;8.65;;;3.70;;
70322;SDS011;57735;56.264;43.898;2022-12-07T00:41:03;9.35;;;4.10;;
70322;SDS011;57735;56.264;43.898;2022-12-07T00:43:36;16.77;;;4.80;;
70322;SDS011;57735;56.264;43.898;2022-12-07T00:46:07;11.18;;;4.15;;
70322;SDS011;57735;56.264;43.898;2022-12-07T00:48:38;8.70;;;3.75;;
70322;SDS011;57735;56.264;43.898;2022-12-07T00:51:10;8.40;;;3.80;;
70322;SDS011;57735;56.264;43.898;2022-12-07T00:53:42;9.57;;;4.40;;
70322;SDS011;57735;56.264;43.898;2022-12-07T00:58:58;11.52;;;4.53;;
70322;SDS011;57735;56.264;43.898;2022-12-07T01:01:31;8.40;;;3.60;;
70322;SDS011;57735;56.264;43.898;2022-12-07T01:04:04;10.85;;;4.00;;
70322;SDS011;57735;56.264;43.898;2022-12-07T01:06:35;13.50;;;4.35;;
70322;SDS011;57735;56.264;43.898;2022-12-07T01:09:08;10.00;;;3.45;;
70322;SDS011;57735;56.264;43.898;2022-12-07T01:11:39;9.85;;;4.32;;
70322;SDS011;57735;56.264;43.898;2022-12-07T01:14:10;12.00;;;3.85;;
70322;SDS011;57735;56.264;43.898;2022-12-07T01:16:41;11.23;;;3.70;;
70322;SDS011;57735;56.264;43.898;2022-12-07T01:19:11;11.02;;;3.80;;
70322;SDS011;57735;56.264;43.898;2022-12-07T01:21:42;11.13;;;3.90;;
70322;SDS011;57735;56.264;43.898;2022-12-07T01:24:13;13.13;;;4.25;;
70322;SDS011;57735;56.264;43.898;2022-12-07T01:26:44;13.68;;;4.13;;
70322;SDS011;57735;56.264;43.898;2022-12-07T01:29:15;14.18;;;4.70;;
70322;SDS011;57735;56.264;43.898;2022-12-07T01:31:47;9.23;;;3.47;;
70322;SDS011;57735;56.264;43.898;2022-12-07T01:34:22;9.52;;;3.72;;
70322;SDS011;57735;56.264;43.898;2022-12-07T01:36:52;8.13;;;3.95;;
70322;SDS011;57735;56.264;43.898;2022-12-07T01:39:23;9.45;;;4.68;;
70322;SDS011;57735;56.264;43.898;2022-12-07T01:41:55;7.65;;;2.60;;
70322;SDS011;57735;56.264;43.898;2022-12-07T01:44:29;12.80;;;5.65;;
70322;SDS011;57735;56.264;43.898;2022-12-07T01:47:03;13.60;;;4.72;;
70322;SDS011;57735;56.264;43.898;2022-12-07T01:49:46;10.45;;;4.20;;
70322;SDS011;57735;56.264;43.898;2022-12-07T01:52:22;17.02;;;4.57;;
70322;SDS011;57735;56.264;43.898;2022-12-07T01:54:59;11.55;;;3.70;;
70322;SDS011;57735;56.264;43.898;2022-12-07T01:57:34;9.95;;;4.35;;
70322;SDS011;57735;56.264;43.898;2022-12-07T02:00:10;12.10;;;3.95;;
70322;SDS011;57735;56.264;43.898;2022-12-07T02:03:29;16.70;;;4.20;;
70322;SDS011;57735;56.264;43.898;2022-12-07T02:05:35;9.68;;;3.60;;
70322;SDS011;57735;56.264;43.898;2022-12-07T02:08:08;12.43;;;4.63;;
70322;SDS011;57735;56.264;43.898;2022-12-07T02:10:41;13.25;;;4.03;;
70322;SDS011;57735;56.264;43.898;2022-12-07T02:13:13;12.80;;;5.38;;
70322;SDS011;57735;56.264;43.898;2022-12-07T02:27:33;8.50;;;3.78;;
70322;SDS011;57735;56.264;43.898;2022-12-07T02:30:11;14.52;;;5.63;;
70322;SDS011;57735;56.264;43.898;2022-12-07T02:35:51;9.88;;;3.97;;
70322;SDS011;57735;56.264;43.898;2022-12-07T02:38:51;6.90;;;2.47;;
70322;SDS011;57735;56.264;43.898;2022-12-07T02:44:07;20.27;;;4.50;;
70322;SDS011;57735;56.264;43.898;2022-12-07T02:46:48;13.05;;;4.20;;
70322;SDS011;57735;56.264;43.898;2022-12-07T02:49:24;7.78;;;3.20;;
70322;SDS011;57735;56.264;43.898;2022-12-07T02:51:57;7.03;;;3.25;;
70322;SDS011;57735;56.264;43.898;2022-12-07T02:54:28;8.73;;;4.10;;
70322;SDS011;57735;56.264;43.898;2022-12-07T03:11:25;12.90;;;5.15;;
70322;SDS011;57735;56.264;43.898;2022-12-07T03:19:33;7.38;;;3.97;;
70322;SDS011;57735;56.264;43.898;2022-12-07T03:22:08;19.48;;;5.18;;
70322;SDS011;57735;56.264;43.898;2022-12-07T03:24:43;9.88;;;4.05;;
70322;SDS011;57735;56.264;43.898;2022-12-07T03:27:47;14.82;;;5.05;;
70322;SDS011;57735;56.264;43.898;2022-12-07T03:31:30;9.05;;;3.88;;
70322;SDS011;57735;56.264;43.898;2022-12-07T03:33:37;12.85;;;4.28;;
70322;SDS011;57735;56.264;43.898;2022-12-07T03:36:21;13.13;;;4.75;;
70322;SDS011;57735;56.264;43.898;2022-12-07T03:39:43;9.90;;;4.55;;
70322;SDS011;57735;56.264;43.898;2022-12-07T03:41:57;12.27;;;4.97;;
70322;SDS011;57735;56.264;43.898;2022-12-07T03:44:29;16.75;;;4.88;;
70322;SDS011;57735;56.264;43.898;2022-12-07T03:49:54;12.85;;;5.07;;
70322;SDS011;57735;56.264;43.898;2022-12-07T03:55:32;17.15;;;4.65;;
70322;SDS011;57735;56.264;43.898;2022-12-07T03:58:14;11.80;;;5.20;;
70322;SDS011;57735;56.264;43.898;2022-12-07T04:00:48;9.18;;;4.38;;
70322;SDS011;57735;56.264;43.898;2022-12-07T04:03:21;15.88;;;5.32;;
70322;SDS011;57735;56.264;43.898;2022-12-07T04:05:51;10.23;;;4.60;;
70322;SDS011;57735;56.264;43.898;2022-12-07T04:08:22;12.02;;;4.95;;
70322;SDS011;57735;56.264;43.898;2022-12-07T04:11:01;11.18;;;4.40;;
70322;SDS011;57735;56.264;43.898;2022-12-07T04:13:32;12.07;;;5.05;;
70322;SDS011;57735;56.264;43.898;2022-12-07T04:16:22;8.65;;;4.15;;
70322;SDS011;57735;56.264;43.898;2022-12-07T04:18:53;15.32;;;6.22;;
70322;SDS011;57735;56.264;43.898;2022-12-07T04:21:27;16.60;;;5.10;;
70322;SDS011;57735;56.264;43.898;2022-12-07T04:23:57;16.73;;;5.45;;
70322;SDS011;57735;56.264;43.898;2022-12-07T04:26:34;10.35;;;4.72;;
70322;SDS011;57735;56.264;43.898;2022-12-07T04:29:05;15.50;;;5.57;;
70322;SDS011;57735;56.264;43.898;2022-12-07T04:31:36;14.38;;;5.07;;
70322;SDS011;57735;56.264;43.898;2022-12-07T04:34:11;15.00;;;5.55;;
70322;SDS011;57735;56.264;43.898;2022-12-07T04:36:42;17.00;;;5.30;;
70322;SDS011;57735;56.264;43.898;2022-12-07T04:39:35;13.23;;;5.22;;
70322;SDS011;57735;56.264;43.898;2022-12-07T04:42:05;11.60;;;4.43;;
70322;SDS011;57735;56.264;43.898;2022-12-07T04:44:36;14.35;;;5.25;;
70322;SDS011;57735;56.264;43.898;2022-12-07T04:47:06;15.38;;;5.68;;
70322;SDS011;57735;56.264;43.898;2022-12-07T04:49:37;23.88;;;5.72;;
70322;SDS011;57735;56.264;43.898;2022-12-07T04:52:08;14.38;;;5.20;;
70322;SDS011;57735;56.264;43.898;2022-12-07T04:54:39;14.10;;;5.50;;
70322;SDS011;57735;56.264;43.898;2022-12-07T04:57:10;11.40;;;4.65;;
70322;SDS011;57735;56.264;43.898;2022-12-07T04:59:40;17.13;;;5.25;;
70322;SDS011;57735;56.264;43.898;2022-12-07T05:02:11;14.27;;;5.68;;
70322;SDS011;57735;56.264;43.898;2022-12-07T05:04:42;15.88;;;6.18;;
70322;SDS011;57735;56.264;43.898;2022-12-07T05:07:16;18.85;;;6.43;;
70322;SDS011;57735;56.264;43.898;2022-12-07T05:09:47;18.15;;;5.85;;
70322;SDS011;57735;56.264;43.898;2022-12-07T05:12:17;20.00;;;6.75;;
70322;SDS011;57735;56.264;43.898;2022-12-07T05:14:48;18.40;;;6.63;;
70322;SDS011;57735;56.264;43.898;2022-12-07T05:17:19;24.85;;;6.90;;
70322;SDS011;57735;56.264;43.898;2022-12-07T05:19:50;15.95;;;6.15;;
70322;SDS011;57735;56.264;43.898;2022-12-07T05:22:21;23.75;;;6.55;;
70322;SDS011;57735;56.264;43.898;2022-12-07T05:24:52;22.33;;;6.10;;
70322;SDS011;57735;56.264;43.898;2022-12-07T05:27:26;21.58;;;7.10;;
70322;SDS011;57735;56.264;43.898;2022-12-07T05:29:56;17.50;;;6.43;;
70322;SDS011;57735;56.264;43.898;2022-12-07T05:32:27;22.00;;;7.32;;
70322;SDS011;57735;56.264;43.898;2022-12-07T05:34:58;19.73;;;6.10;;
70322;SDS011;57735;56.264;43.898;2022-12-07T05:37:29;21.92;;;8.15;;
70322;SDS011;57735;56.264;43.898;2022-12-07T05:40:07;20.20;;;6.80;;
70322;SDS011;57735;56.264;43.898;2022-12-07T05:42:39;19.10;;;6.95;;
70322;SDS011;57735;56.264;43.898;2022-12-07T05:45:10;19.67;;;7.10;;
70322;SDS011;57735;56.264;43.898;2022-12-07T05:47:41;20.33;;;7.93;;
70322;SDS011;57735;56.264;43.898;2022-12-07T05:50:12;19.40;;;8.18;;
70322;SDS011;57735;56.264;43.898;2022-12-07T05:52:43;23.08;;;7.25;;
70322;SDS011;57735;56.264;43.898;2022-12-07T05:55:16;19.27;;;6.20;;
70322;SDS011;57735;56.264;43.898;2022-12-07T05:57:47;20.23;;;7.38;;
70322;SDS011;57735;56.264;43.898;2022-12-07T06:00:36;22.42;;;6.53;;
70322;SDS011;57735;56.264;43.898;2022-12-07T06:03:07;15.25;;;7.03;;
70322;SDS011;57735;56.264;43.898;2022-12-07T06:05:41;20.52;;;7.35;;
70322;SDS011;57735;56.264;43.898;2022-12-07T06:08:11;21.35;;;7.80;;
70322;SDS011;57735;56.264;43.898;2022-12-07T06:10:46;17.60;;;6.78;;
70322;SDS011;57735;56.264;43.898;2022-12-07T06:13:37;26.67;;;8.10;;
70322;SDS011;57735;56.264;43.898;2022-12-07T06:16:08;18.33;;;6.85;;
70322;SDS011;57735;56.264;43.898;2022-12-07T06:18:39;27.63;;;10.27;;
70322;SDS011;57735;56.264;43.898;2022-12-07T06:21:09;33.03;;;9.85;;
70322;SDS011;57735;56.264;43.898;2022-12-07T06:23:42;43.20;;;13.00;;
70322;SDS011;57735;56.264;43.898;2022-12-07T06:26:13;26.08;;;10.05;;
70322;SDS011;57735;56.264;43.898;2022-12-07T06:28:44;21.17;;;8.52;;
70322;SDS011;57735;56.264;43.898;2022-12-07T06:31:15;20.40;;;6.68;;
70322;SDS011;57735;56.264;43.898;2022-12-07T06:33:46;19.33;;;7.18;;
70322;SDS011;57735;56.264;43.898;2022-12-07T06:36:17;20.10;;;7.57;;
70322;SDS011;57735;56.264;43.898;2022-12-07T06:38:47;21.20;;;6.93;;
70322;SDS011;57735;56.264;43.898;2022-12-07T06:41:20;23.20;;;7.22;;
70322;SDS011;57735;56.264;43.898;2022-12-07T06:43:52;20.70;;;8.25;;
70322;SDS011;57735;56.264;43.898;2022-12-07T06:46:23;21.85;;;7.63;;
70322;SDS011;57735;56.264;43.898;2022-12-07T06:48:54;22.52;;;7.75;;
70322;SDS011;57735;56.264;43.898;2022-12-07T06:51:27;26.48;;;8.13;;
70322;SDS011;57735;56.264;43.898;2022-12-07T06:54:02;18.85;;;7.85;;
70322;SDS011;57735;56.264;43.898;2022-12-07T06:56:34;28.33;;;7.65;;
70322;SDS011;57735;56.264;43.898;2022-12-07T06:59:07;20.05;;;6.55;;
70322;SDS011;57735;56.264;43.898;2022-12-07T07:01:38;15.63;;;6.10;;
70322;SDS011;57735;56.264;43.898;2022-12-07T07:04:09;15.38;;;5.80;;
70322;SDS011;57735;56.264;43.898;2022-12-07T07:06:40;18.92;;;7.18;;
70322;SDS011;57735;56.264;43.898;2022-12-07T07:09:12;24.40;;;7.88;;
70322;SDS011;57735;56.264;43.898;2022-12-07T07:11:42;24.65;;;8.18;;
70322;SDS011;57735;56.264;43.898;2022-12-07T07:14:13;31.95;;;7.50;;
70322;SDS011;57735;56.264;43.898;2022-12-07T07:16:49;24.83;;;9.68;;
70322;SDS011;57735;56.264;43.898;2022-12-07T07:19:19;35.72;;;10.40;;
70322;SDS011;57735;56.264;43.898;2022-12-07T07:21:50;23.05;;;7.50;;
70322;SDS011;57735;56.264;43.898;2022-12-07T07:24:21;37.33;;;10.43;;
70322;SDS011;57735;56.264;43.898;2022-12-07T07:26:52;33.38;;;9.18;;
70322;SDS011;57735;56.264;43.898;2022-12-07T07:29:23;38.30;;;11.57;;
70322;SDS011;57735;56.264;43.898;2022-12-07T07:31:54;33.55;;;10.10;;
70322;SDS011;57735;56.264;43.898;2022-12-07T07:34:24;26.90;;;9.00;;
70322;SDS011;57735;56.264;43.898;2022-12-07T07:36:58;20.77;;;7.47;;
70322;SDS011;57735;56.264;43.898;2022-12-07T07:39:29;23.40;;;7.93;;
70322;SDS011;57735;56.264;43.898;2022-12-07T07:42:00;27.60;;;8.35;;
70322;SDS011;57735;56.264;43.898;2022-12-07T07:44:31;22.30;;;8.00;;
70322;SDS011;57735;56.264;43.898;2022-12-07T07:47:02;29.58;;;8.00;;
70322;SDS011;57735;56.264;43.898;2022-12-07T07:49:35;20.02;;;7.95;;
70322;SDS011;57735;56.264;43.898;2022-12-07T07:52:06;24.90;;;6.00;;
70322;SDS011;57735;56.264;43.898;2022-12-07T07:54:37;23.15;;;7.63;;
70322;SDS011;57735;56.264;43.898;2022-12-07T07:57:07;27.33;;;8.70;;
70322;SDS011;57735;56.264;43.898;2022-12-07T07:59:38;21.13;;;8.25;;
70322;SDS011;57735;56.264;43.898;2022-12-07T08:02:16;22.70;;;7.88;;
70322;SDS011;57735;56.264;43.898;2022-12-07T08:04:48;21.73;;;6.63;;
70322;SDS011;57735;56.264;43.898;2022-12-07T08:07:19;25.33;;;8.63;;
70322;SDS011;57735;56.264;43.898;2022-12-07T08:09:50;20.02;;;7.53;;
70322;SDS011;57735;56.264;43.898;2022-12-07T08:12:20;24.67;;;7.15;;
70322;SDS011;57735;56.264;43.898;2022-12-07T08:14:51;20.38;;;7.80;;
70322;SDS011;57735;56.264;43.898;2022-12-07T08:17:22;27.08;;;8.63;;
70322;SDS011;57735;56.264;43.898;2022-12-07T08:19:53;26.08;;;9.38;;
70322;SDS011;57735;56.264;43.898;2022-12-07T08:22:27;22.60;;;8.30;;
70322;SDS011;57735;56.264;43.898;2022-12-07T08:24:57;23.42;;;8.32;;
70322;SDS011;57735;56.264;43.898;2022-12-07T08:27:31;22.60;;;7.70;;
70322;SDS011;57735;56.264;43.898;2022-12-07T08:30:02;28.90;;;10.23;;
70322;SDS011;57735;56.264;43.898;2022-12-07T08:32:34;24.17;;;9.38;;
70322;SDS011;57735;56.264;43.898;2022-12-07T08:35:05;35.78;;;9.93;;
70322;SDS011;57735;56.264;43.898;2022-12-07T08:37:36;24.02;;;9.10;;
70322;SDS011;57735;56.264;43.898;2022-12-07T08:40:08;24.48;;;7.68;;
70322;SDS011;57735;56.264;43.898;2022-12-07T08:42:40;23.65;;;7.95;;
70322;SDS011;57735;56.264;43.898;2022-12-07T08:45:13;26.23;;;9.65;;
70322;SDS011;57735;56.264;43.898;2022-12-07T08:47:47;25.38;;;7.60;;
70322;SDS011;57735;56.264;43.898;2022-12-07T08:50:40;18.48;;;7.82;;
70322;SDS011;57735;56.264;43.898;2022-12-07T08:53:13;28.98;;;9.05;;
70322;SDS011;57735;56.264;43.898;2022-12-07T08:55:46;21.90;;;8.13;;
70322;SDS011;57735;56.264;43.898;2022-12-07T08:58:18;39.20;;;12.25;;
70322;SDS011;57735;56.264;43.898;2022-12-07T09:00:49;39.85;;;11.35;;
70322;SDS011;57735;56.264;43.898;2022-12-07T09:03:22;32.90;;;11.23;;
70322;SDS011;57735;56.264;43.898;2022-12-07T09:05:53;25.77;;;11.05;;
70322;SDS011;57735;56.264;43.898;2022-12-07T09:08:28;31.90;;;10.93;;
70322;SDS011;57735;56.264;43.898;2022-12-07T09:11:03;29.05;;;9.25;;
70322;SDS011;57735;56.264;43.898;2022-12-07T09:13:34;25.63;;;8.00;;
70322;SDS011;57735;56.264;43.898;2022-12-07T09:16:04;27.55;;;8.80;;
70322;SDS011;57735;56.264;43.898;2022-12-07T09:18:35;20.25;;;7.07;;
70322;SDS011;57735;56.264;43.898;2022-12-07T09:21:08;25.83;;;9.45;;
70322;SDS011;57735;56.264;43.898;2022-12-07T09:23:40;29.40;;;9.85;;
70322;SDS011;57735;56.264;43.898;2022-12-07T09:26:12;30.83;;;8.63;;
70322;SDS011;57735;56.264;43.898;2022-12-07T09:28:44;28.35;;;8.80;;
70322;SDS011;57735;56.264;43.898;2022-12-07T09:31:14;22.63;;;8.65;;
70322;SDS011;57735;56.264;43.898;2022-12-07T09:33:45;27.35;;;8.90;;
70322;SDS011;57735;56.264;43.898;2022-12-07T09:36:16;25.00;;;7.65;;
70322;SDS011;57735;56.264;43.898;2022-12-07T09:38:49;21.23;;;7.20;;
70322;SDS011;57735;56.264;43.898;2022-12-07T09:41:25;21.02;;;6.25;;
70322;SDS011;57735;56.264;43.898;2022-12-07T09:44:03;25.30;;;7.95;;
70322;SDS011;57735;56.264;43.898;2022-12-07T09:46:36;23.42;;;8.27;;
70322;SDS011;57735;56.264;43.898;2022-12-07T09:49:14;24.92;;;7.82;;
70322;SDS011;57735;56.264;43.898;2022-12-07T09:54:42;24.95;;;8.73;;
70322;SDS011;57735;56.264;43.898;2022-12-07T09:57:27;27.80;;;8.15;;
70322;SDS011;57735;56.264;43.898;2022-12-07T10:00:02;21.08;;;7.15;;
70322;SDS011;57735;56.264;43.898;2022-12-07T10:02:41;19.05;;;6.93;;
70322;SDS011;57735;56.264;43.898;2022-12-07T10:05:16;21.08;;;6.95;;
70322;SDS011;57735;56.264;43.898;2022-12-07T10:07:51;20.77;;;6.25;;
70322;SDS011;57735;56.264;43.898;2022-12-07T10:10:32;22.00;;;7.47;;
70322;SDS011;57735;56.264;43.898;2022-12-07T10:13:10;14.52;;;5.90;;
70322;SDS011;57735;56.264;43.898;2022-12-07T10:15:54;18.63;;;7.07;;
70322;SDS011;57735;56.264;43.898;2022-12-07T10:23:31;19.27;;;5.95;;
70322;SDS011;57735;56.264;43.898;2022-12-07T10:28:59;18.35;;;6.72;;
70322;SDS011;57735;56.264;43.898;2022-12-07T10:32:08;19.70;;;6.18;;
70322;SDS011;57735;56.264;43.898;2022-12-07T10:35:23;16.40;;;5.55;;
70322;SDS011;57735;56.264;43.898;2022-12-07T10:37:54;15.95;;;6.05;;
70322;SDS011;57735;56.264;43.898;2022-12-07T10:40:35;19.27;;;6.30;;
70322;SDS011;57735;56.264;43.898;2022-12-07T10:57:47;22.00;;;7.85;;
70322;SDS011;57735;56.264;43.898;2022-12-07T11:00:51;16.08;;;6.55;;
70322;SDS011;57735;56.264;43.898;2022-12-07T11:06:08;23.65;;;9.35;;
70322;SDS011;57735;56.264;43.898;2022-12-07T11:11:59;21.35;;;6.72;;
70322;SDS011;57735;56.264;43.898;2022-12-07T11:17:34;28.42;;;9.10;;
70322;SDS011;57735;56.264;43.898;2022-12-07T11:20:37;30.70;;;10.23;;
70322;SDS011;57735;56.264;43.898;2022-12-07T11:29:39;27.23;;;6.93;;
70322;SDS011;57735;56.264;43.898;2022-12-07T11:35:32;23.45;;;9.63;;
70322;SDS011;57735;56.264;43.898;2022-12-07T11:38:42;29.88;;;10.43;;
70322;SDS011;57735;56.264;43.898;2022-12-07T11:41:25;32.63;;;10.50;;
70322;SDS011;57735;56.264;43.898;2022-12-07T11:44:07;37.78;;;12.75;;
70322;SDS011;57735;56.264;43.898;2022-12-07T11:55:16;38.40;;;13.23;;
70322;SDS011;57735;56.264;43.898;2022-12-07T11:58:03;37.30;;;13.57;;
70322;SDS011;57735;56.264;43.898;2022-12-07T12:00:46;38.70;;;14.98;;
70322;SDS011;57735;56.264;43.898;2022-12-07T12:03:27;39.47;;;14.93;;
70322;SDS011;57735;56.264;43.898;2022-12-07T12:06:04;40.25;;;15.35;;
70322;SDS011;57735;56.264;43.898;2022-12-07T12:08:55;47.03;;;15.80;;
70322;SDS011;57735;56.264;43.898;2022-12-07T12:14:46;42.22;;;15.93;;
70322;SDS011;57735;56.264;43.898;2022-12-07T12:17:26;35.83;;;14.18;;
70322;SDS011;57735;56.264;43.898;2022-12-07T12:23:00;36.78;;;11.35;;
70322;SDS011;57735;56.264;43.898;2022-12-07T12:28:21;32.90;;;10.80;;
70322;SDS011;57735;56.264;43.898;2022-12-07T12:31:06;14.98;;;5.18;;
70322;SDS011;57735;56.264;43.898;2022-12-07T12:33:38;24.30;;;8.48;;
70322;SDS011;57735;56.264;43.898;2022-12-07T12:42:20;21.88;;;7.82;;
70322;SDS011;57735;56.264;43.898;2022-12-07T12:46:54;16.63;;;7.28;;
70322;SDS011;57735;56.264;43.898;2022-12-07T12:54:58;57.65;;;18.05;;
70322;SDS011;57735;56.264;43.898;2022-12-07T12:57:43;54.65;;;17.60;;
70322;SDS011;57735;56.264;43.898;2022-12-07T13:00:18;45.83;;;14.45;;
70322;SDS011;57735;56.264;43.898;2022-12-07T13:02:54;46.20;;;15.15;;
70322;SDS011;57735;56.264;43.898;2022-12-07T13:05:32;35.95;;;12.00;;
70322;SDS011;57735;56.264;43.898;2022-12-07T13:08:24;21.58;;;5.88;;
70322;SDS011;57735;56.264;43.898;2022-12-07T13:10:55;30.92;;;9.13;;
70322;SDS011;57735;56.264;43.898;2022-12-07T13:13:47;39.60;;;11.30;;
70322;SDS011;57735;56.264;43.898;2022-12-07T13:18:52;35.30;;;10.70;;
70322;SDS011;57735;56.264;43.898;2022-12-07T13:23:59;26.63;;;9.50;;
70322;SDS011;57735;56.264;43.898;2022-12-07T13:26:36;33.53;;;10.82;;
70322;SDS011;57735;56.264;43.898;2022-12-07T13:29:15;33.95;;;11.35;;
70322;SDS011;57735;56.264;43.898;2022-12-07T13:39:59;30.88;;;10.15;;
70322;SDS011;57735;56.264;43.898;2022-12-07T13:42:32;23.98;;;8.75;;
70322;SDS011;57735;56.264;43.898;2022-12-07T13:51:01;27.70;;;10.52;;
70322;SDS011;57735;56.264;43.898;2022-12-07T13:53:33;40.47;;;14.55;;
70322;SDS011;57735;56.264;43.898;2022-12-07T13:56:17;42.35;;;14.48;;
70322;SDS011;57735;56.264;43.898;2022-12-07T13:58:48;54.92;;;19.98;;
70322;SDS011;57735;56.264;43.898;2022-12-07T14:01:19;41.90;;;14.75;;
70322;SDS011;57735;56.264;43.898;2022-12-07T14:03:50;36.30;;;13.70;;
70322;SDS011;57735;56.264;43.898;2022-12-07T14:06:23;27.15;;;10.27;;
70322;SDS011;57735;56.264;43.898;2022-12-07T14:11:57;36.40;;;13.13;;
70322;SDS011;57735;56.264;43.898;2022-12-07T14:14:36;42.95;;;13.20;;
70322;SDS011;57735;56.264;43.898;2022-12-07T14:17:18;23.73;;;9.60;;
70322;SDS011;57735;56.264;43.898;2022-12-07T14:19:57;26.02;;;9.07;;
70322;SDS011;57735;56.264;43.898;2022-12-07T14:27:47;23.10;;;8.07;;
70322;SDS011;57735;56.264;43.898;2022-12-07T14:30:20;29.38;;;8.88;;
70322;SDS011;57735;56.264;43.898;2022-12-07T14:32:53;28.30;;;9.90;;
70322;SDS011;57735;56.264;43.898;2022-12-07T14:35:27;33.65;;;12.05;;
70322;SDS011;57735;56.264;43.898;2022-12-07T14:40:32;36.40;;;12.23;;
70322;SDS011;57735;56.264;43.898;2022-12-07T14:43:04;37.60;;;13.85;;
70322;SDS011;57735;56.264;43.898;2022-12-07T14:45:39;38.80;;;14.70;;
70322;SDS011;57735;56.264;43.898;2022-12-07T14:48:10;52.08;;;18.35;;
70322;SDS011;57735;56.264;43.898;2022-12-07T14:50:49;45.67;;;17.67;;
70322;SDS011;57735;56.264;43.898;2022-12-07T14:53:24;54.13;;;19.60;;
70322;SDS011;57735;56.264;43.898;2022-12-07T14:56:00;51.45;;;21.48;;
70322;SDS011;57735;56.264;43.898;2022-12-07T14:58:31;55.75;;;19.63;;
70322;SDS011;57735;56.264;43.898;2022-12-07T15:01:03;54.00;;;21.02;;
70322;SDS011;57735;56.264;43.898;2022-12-07T15:03:36;56.42;;;19.20;;
70322;SDS011;57735;56.264;43.898;2022-12-07T15:06:09;41.13;;;14.50;;
70322;SDS011;57735;56.264;43.898;2022-12-07T15:08:48;26.33;;;8.25;;
70322;SDS011;57735;56.264;43.898;2022-12-07T15:11:22;21.73;;;6.55;;
70322;SDS011;57735;56.264;43.898;2022-12-07T15:13:52;23.25;;;8.43;;
70322;SDS011;57735;56.264;43.898;2022-12-07T15:16:42;33.30;;;9.93;;
70322;SDS011;57735;56.264;43.898;2022-12-07T15:19:17;11.75;;;4.55;;
70322;SDS011;57735;56.264;43.898;2022-12-07T15:21:52;25.75;;;7.60;;
70322;SDS011;57735;56.264;43.898;2022-12-07T15:24:23;23.73;;;8.25;;
70322;SDS011;57735;56.264;43.898;2022-12-07T15:26:54;25.80;;;9.27;;
70322;SDS011;57735;56.264;43.898;2022-12-07T15:29:25;25.92;;;8.43;;
70322;SDS011;57735;56.264;43.898;2022-12-07T15:31:56;36.45;;;9.48;;
70322;SDS011;57735;56.264;43.898;2022-12-07T15:34:27;23.35;;;8.25;;
70322;SDS011;57735;56.264;43.898;2022-12-07T15:36:58;27.58;;;8.63;;
70322;SDS011;57735;56.264;43.898;2022-12-07T15:39:29;23.85;;;8.00;;
70322;SDS011;57735;56.264;43.898;2022-12-07T15:42:02;23.95;;;8.52;;
70322;SDS011;57735;56.264;43.898;2022-12-07T15:44:33;34.20;;;8.95;;
70322;SDS011;57735;56.264;43.898;2022-12-07T15:47:23;23.33;;;6.00;;
70322;SDS011;57735;56.264;43.898;2022-12-07T15:49:54;20.83;;;7.82;;
70322;SDS011;57735;56.264;43.898;2022-12-07T15:52:24;22.30;;;7.88;;
70322;SDS011;57735;56.264;43.898;2022-12-07T15:54:56;25.77;;;8.60;;
70322;SDS011;57735;56.264;43.898;2022-12-07T15:57:26;29.77;;;10.27;;
70322;SDS011;57735;56.264;43.898;2022-12-07T15:59:57;41.80;;;10.80;;
70322;SDS011;57735;56.264;43.898;2022-12-07T16:02:28;35.90;;;10.77;;
70322;SDS011;57735;56.264;43.898;2022-12-07T16:04:59;23.95;;;8.82;;
70322;SDS011;57735;56.264;43.898;2022-12-07T16:07:30;22.80;;;7.93;;
70322;SDS011;57735;56.264;43.898;2022-12-07T16:10:00;19.08;;;6.43;;
70322;SDS011;57735;56.264;43.898;2022-12-07T16:12:32;17.40;;;6.32;;
70322;SDS011;57735;56.264;43.898;2022-12-07T16:15:02;20.98;;;6.63;;
70322;SDS011;57735;56.264;43.898;2022-12-07T16:17:34;18.58;;;6.28;;
70322;SDS011;57735;56.264;43.898;2022-12-07T16:20:05;18.85;;;7.10;;
70322;SDS011;57735;56.264;43.898;2022-12-07T16:22:36;20.15;;;7.53;;
70322;SDS011;57735;56.264;43.898;2022-12-07T16:25:07;22.08;;;8.10;;
70322;SDS011;57735;56.264;43.898;2022-12-07T16:27:38;23.02;;;8.65;;
70322;SDS011;57735;56.264;43.898;2022-12-07T16:30:13;28.60;;;10.88;;
70322;SDS011;57735;56.264;43.898;2022-12-07T16:32:46;33.20;;;12.05;;
70322;SDS011;57735;56.264;43.898;2022-12-07T16:35:17;40.53;;;11.55;;
70322;SDS011;57735;56.264;43.898;2022-12-07T16:37:48;30.95;;;12.88;;
70322;SDS011;57735;56.264;43.898;2022-12-07T16:40:19;48.20;;;16.77;;
70322;SDS011;57735;56.264;43.898;2022-12-07T16:42:49;39.17;;;14.15;;
70322;SDS011;57735;56.264;43.898;2022-12-07T16:45:20;47.42;;;16.02;;
70322;SDS011;57735;56.264;43.898;2022-12-07T16:47:56;33.17;;;12.67;;
70322;SDS011;57735;56.264;43.898;2022-12-07T16:50:27;27.95;;;9.32;;
70322;SDS011;57735;56.264;43.898;2022-12-07T16:52:58;27.45;;;9.80;;
70322;SDS011;57735;56.264;43.898;2022-12-07T16:55:28;23.02;;;8.90;;
70322;SDS011;57735;56.264;43.898;2022-12-07T16:57:59;23.67;;;8.45;;
70322;SDS011;57735;56.264;43.898;2022-12-07T17:00:30;24.75;;;9.07;;
70322;SDS011;57735;56.264;43.898;2022-12-07T17:03:01;24.80;;;7.97;;
70322;SDS011;57735;56.264;43.898;2022-12-07T17:05:41;23.38;;;7.50;;
70322;SDS011;57735;56.264;43.898;2022-12-07T17:08:12;23.10;;;8.15;;
70322;SDS011;57735;56.264;43.898;2022-12-07T17:10:44;30.75;;;9.70;;
70322;SDS011;57735;56.264;43.898;2022-12-07T17:13:15;25.25;;;8.18;;
70322;SDS011;57735;56.264;43.898;2022-12-07T17:16:05;27.35;;;10.18;;
70322;SDS011;57735;56.264;43.898;2022-12-07T17:18:36;29.33;;;10.25;;
70322;SDS011;57735;56.264;43.898;2022-12-07T17:21:07;36.55;;;11.57;;
70322;SDS011;57735;56.264;43.898;2022-12-07T17:23:39;28.85;;;11.68;;
70322;SDS011;57735;56.264;43.898;2022-12-07T17:26:18;34.08;;;11.60;;
70322;SDS011;57735;56.264;43.898;2022-12-07T17:28:52;26.73;;;10.20;;
70322;SDS011;57735;56.264;43.898;2022-12-07T17:31:23;33.97;;;11.05;;
70322;SDS011;57735;56.264;43.898;2022-12-07T17:33:54;32.35;;;8.70;;